Time,TemperatureF,DewpointF,PressureIn,WindDirection,WindDirectionDegrees,WindSpeedMPH,WindSpeedGustMPH,Humidity,HourlyPrecipIn,Conditions,Clouds,dailyrainin,SoftwareType,DateUTC
2013-04-05 09:32:00,51.0,51.0,25.90,SE,146,3.0,14.0,99,0.00,,,0.01,,2013-04-05 16:32:00,
2013-04-05 09:43:00,51.0,51.0,25.90,SE,146,3.0,14.0,99,0.00,,,0.01,,2013-04-05 16:43:00,
2013-04-05 09:53:00,51.0,50.0,25.91,ESE,116,6.0,18.0,98,0.00,,,0.01,,2013-04-05 16:53:00,
2013-04-05 10:02:00,51.0,51.0,25.92,SSE,152,3.0,21.0,99,0.01,,,0.02,,2013-04-05 17:02:00,
2013-04-05 10:12:00,51.0,51.0,25.92,SSE,152,3.0,21.0,99,0.01,,,0.02,,2013-04-05 17:12:00,
2013-04-05 10:22:00,51.0,51.0,25.94,SSE,147,7.0,19.0,99,0.01,,,0.02,,2013-04-05 17:22:00,
2013-04-05 10:32:00,51.0,50.0,25.88,SSE,160,5.0,17.0,98,0.01,,,0.02,,2013-04-05 17:32:00,
2013-04-05 10:44:00,51.0,50.0,25.88,SSE,160,5.0,17.0,98,0.01,,,0.02,,2013-04-05 17:44:00,
2013-04-05 10:51:00,50.0,50.0,25.89,South,178,7.0,18.0,99,0.01,,,0.02,,2013-04-05 17:51:00,
2013-04-05 11:02:00,50.0,50.0,25.91,SSE,159,9.0,24.0,99,0.01,,,0.03,,2013-04-05 18:02:00,
2013-04-05 11:12:00,50.0,50.0,25.91,SSE,159,9.0,24.0,99,0.01,,,0.03,,2013-04-05 18:12:00,
2013-04-05 11:22:00,51.0,51.0,25.95,South,170,4.0,17.0,99,0.01,,,0.03,,2013-04-05 18:22:00,
2013-04-05 11:32:00,51.0,50.0,25.82,SSE,155,6.0,22.0,98,0.02,,,0.04,,2013-04-05 18:32:00,
2013-04-05 11:42:00,51.0,50.0,25.82,SSE,155,6.0,22.0,98,0.02,,,0.04,,2013-04-05 18:42:00,
2013-04-05 11:52:00,51.0,50.0,25.86,SSE,154,11.0,22.0,98,0.02,,,0.04,,2013-04-05 18:52:00,
2013-04-05 12:02:00,52.0,51.0,25.87,SSE,168,8.0,23.0,98,0.01,,,0.04,,2013-04-05 19:02:00,
2013-04-05 12:12:00,52.0,51.0,25.87,SSE,168,8.0,23.0,98,0.01,,,0.04,,2013-04-05 19:12:00,
2013-04-05 12:22:00,52.0,51.0,25.89,SE,132,7.0,18.0,97,0.01,,,0.04,,2013-04-05 19:22:00,
2013-04-05 12:32:00,52.0,51.0,25.89,SE,132,7.0,18.0,97,0.01,,,0.04,,2013-04-05 19:32:00,
2013-04-05 12:42:00,52.0,51.0,25.89,SE,132,7.0,18.0,97,0.01,,,0.04,,2013-04-05 19:42:00,
2013-04-05 12:51:00,52.0,51.0,25.89,SE,132,7.0,18.0,97,0.01,,,0.04,,2013-04-05 19:51:00,
2013-04-05 13:22:00,53.0,51.0,25.85,SSE,165,5.0,19.0,94,0.00,,,0.04,,2013-04-05 20:22:00,
2013-04-05 13:32:00,53.0,51.0,25.85,SSE,165,5.0,19.0,94,0.00,,,0.04,,2013-04-05 20:32:00,
2013-04-05 13:42:00,53.0,51.0,25.85,SSE,165,5.0,19.0,94,0.00,,,0.04,,2013-04-05 20:42:00,
2013-04-05 13:52:00,53.0,51.0,25.84,ESE,112,4.0,19.0,94,0.00,,,0.04,,2013-04-05 20:52:00,
2013-04-05 14:12:00,52.0,51.0,25.85,South,169,6.0,19.0,96,0.00,,,0.04,,2013-04-05 21:12:00,
2013-04-05 14:22:00,52.0,51.0,25.85,South,169,6.0,19.0,96,0.00,,,0.04,,2013-04-05 21:22:00,
2013-04-05 14:32:00,51.0,50.0,25.89,ESE,123,9.0,21.0,97,0.05,,,0.09,,2013-04-05 21:32:00,
2013-04-05 14:42:00,51.0,50.0,25.89,ESE,123,9.0,21.0,97,0.05,,,0.09,,2013-04-05 21:42:00,
2013-04-05 14:54:00,51.0,50.0,25.89,South,169,11.0,30.0,97,0.07,,,0.11,,2013-04-05 21:54:00,
2013-04-05 15:02:00,51.0,50.0,25.93,SE,146,9.0,23.0,97,0.10,,,0.14,,2013-04-05 22:02:00,
2013-04-05 15:12:00,51.0,50.0,25.93,SE,146,9.0,23.0,97,0.10,,,0.14,,2013-04-05 22:12:00,
2013-04-05 15:22:00,51.0,50.0,25.93,SE,146,9.0,23.0,97,0.10,,,0.14,,2013-04-05 22:22:00,
2013-04-05 15:32:00,51.0,50.0,25.85,SE,144,4.0,16.0,98,0.12,,,0.21,,2013-04-05 22:32:00,
2013-04-05 15:43:00,51.0,50.0,25.85,SE,144,4.0,16.0,98,0.12,,,0.21,,2013-04-05 22:43:00,
2013-04-05 15:52:00,51.0,50.0,25.85,SE,144,4.0,16.0,98,0.12,,,0.21,,2013-04-05 22:52:00,
2013-04-05 16:02:00,51.0,50.0,25.85,SSE,159,6.0,14.0,98,0.08,,,0.24,,2013-04-05 23:02:00,
2013-04-05 16:12:00,51.0,50.0,25.85,SSE,159,6.0,14.0,98,0.08,,,0.24,,2013-04-05 23:12:00,
2013-04-05 16:22:00,51.0,50.0,25.85,ESE,112,7.0,18.0,98,0.08,,,0.25,,2013-04-05 23:22:00,
2013-04-05 16:32:00,51.0,50.0,25.88,ESE,120,6.0,22.0,98,0.05,,,0.25,,2013-04-05 23:32:00,
2013-04-05 16:42:00,51.0,50.0,25.88,ESE,120,6.0,22.0,98,0.05,,,0.25,,2013-04-05 23:42:00,
2013-04-05 16:52:00,51.0,50.0,25.90,SE,133,6.0,17.0,98,0.05,,,0.26,,2013-04-05 23:52:00,
2013-04-05 17:02:00,51.0,50.0,25.90,ESE,119,3.0,10.0,98,0.04,,,0.27,,2013-04-06 00:02:00,
2013-04-05 17:12:00,51.0,50.0,25.90,ESE,119,3.0,10.0,98,0.04,,,0.27,,2013-04-06 00:12:00,
2013-04-05 17:22:00,51.0,50.0,25.88,SE,133,5.0,12.0,98,0.03,,,0.27,,2013-04-06 00:22:00,
2013-04-05 17:32:00,51.0,50.0,25.84,SE,127,2.0,9.0,98,0.02,,,0.27,,2013-04-06 00:32:00,
2013-04-05 17:42:00,51.0,50.0,25.84,SE,127,2.0,9.0,98,0.02,,,0.27,,2013-04-06 00:42:00,
2013-04-05 17:52:00,51.0,50.0,25.87,SE,142,2.0,7.0,98,0.01,,,0.27,,2013-04-06 00:52:00,
2013-04-05 18:02:00,52.0,51.0,25.89,ESE,123,1.0,11.0,98,0.01,,,0.28,,2013-04-06 01:02:00,
2013-04-05 18:12:00,51.0,50.0,25.89,SE,133,3.0,15.0,98,0.01,,,0.28,,2013-04-06 01:12:00,
2013-04-05 18:22:00,51.0,50.0,25.89,SE,133,3.0,15.0,98,0.01,,,0.28,,2013-04-06 01:22:00,
2013-04-05 18:32:00,51.0,50.0,25.89,SE,134,3.0,12.0,98,0.01,,,0.28,,2013-04-06 01:32:00,
2013-04-05 18:42:00,51.0,50.0,25.89,SE,134,3.0,12.0,98,0.01,,,0.28,,2013-04-06 01:42:00,
2013-04-05 18:52:00,51.0,50.0,25.89,SE,134,3.0,12.0,98,0.01,,,0.28,,2013-04-06 01:52:00,
2013-04-05 19:03:00,51.0,-99.9,25.91,SSE,153,6.0,6.0,-999,0.00,,,0.28,,2013-04-06 02:03:00,
2013-04-05 19:13:00,51.0,-99.9,25.91,SSE,153,6.0,6.0,-999,0.00,,,0.28,,2013-04-06 02:13:00,
2013-04-05 19:23:00,51.0,-99.9,25.91,SSE,153,6.0,6.0,-999,0.00,,,0.28,,2013-04-06 02:23:00,